»·PEaware :: DAL434 KEGE-KPDX

DAL434 :: KEGE-KPDX

FLIGHT INFORMATION

Flight Status: Arrived
Operator:
Delta Air Lines
More flights by this operator :: More flights under this callsign
Pilot: Drew Hood (3199)
Aircraft: CANADAIR CL-600 CRJ-200
(CRJ2)
More flights by this aircraft type
Origin: KEGE Eagle Co Regl
United States
Destination: KPDX Portland Intl
United States
More flights between these airports :: More routes between these airports
Route: EKR2 EKR TCH J15 IMB JOTBA HHOOD3
File this flight plan on PilotEdge
Remarks:
Altitude:
(Current/Filed)
28,000ft
Speed:
(Current/Filed)
430kts
Departed: 11-Jan-17 02:31 PM
Arrived: 11-Jan-17 04:52 PM
Distance/Time
Traveled:
777nm/2:21
Distance/Time
To Go:
Arrived

Flight Plot

Page will automatically refresh every two minutes.

Flight plan parsing failed; only flown route is shown


Map Options




Map Legend


Flown Route
Filed Route
Departure Airport
Arrival Airport
Navaid (VOR, NDB)
Fix

Horizontal Profiles

Position Reports

Time Latitude Longitude Heading Altitude Ground
Speed
11-Jan-17 13:39 39.640456 -106.915706 172 6551ft 0kts
11-Jan-17 13:40 39.640456 -106.915706 172 6551ft 0kts
11-Jan-17 13:41 39.640456 -106.915706 172 6551ft 0kts
11-Jan-17 13:42 39.640456 -106.915706 172 6551ft 0kts
11-Jan-17 13:43 39.640456 -106.915706 172 6551ft 0kts
11-Jan-17 13:44 39.640456 -106.915706 172 6551ft 0kts
11-Jan-17 13:45 39.640456 -106.915706 172 6551ft 0kts
11-Jan-17 13:46 39.640456 -106.915706 172 6551ft 0kts
11-Jan-17 13:47 39.640456 -106.915706 172 6551ft 0kts
11-Jan-17 13:48 39.640456 -106.915706 172 6551ft 0kts
11-Jan-17 13:49 39.640456 -106.915706 172 6551ft 0kts
11-Jan-17 13:50 39.640456 -106.915706 172 6551ft 0kts
11-Jan-17 13:51 39.640456 -106.915706 172 6551ft 0kts
11-Jan-17 13:52 39.640456 -106.915706 172 6551ft 0kts
11-Jan-17 13:53 39.640456 -106.915706 172 6551ft 0kts
11-Jan-17 13:54 39.640456 -106.915706 172 6551ft 0kts
11-Jan-17 13:55 39.640456 -106.915706 172 6551ft 0kts
11-Jan-17 13:56 39.640456 -106.915706 172 6551ft 0kts
11-Jan-17 13:57 39.640456 -106.915706 172 6551ft 0kts
11-Jan-17 13:58 39.640456 -106.915706 172 6551ft 0kts
11-Jan-17 13:59 39.640456 -106.915706 172 6551ft 0kts
11-Jan-17 14:00 39.640456 -106.915706 172 6551ft 0kts
11-Jan-17 14:01 39.640456 -106.915706 172 6551ft 0kts
11-Jan-17 14:02 39.640456 -106.915706 172 6551ft 0kts
11-Jan-17 14:03 39.640456 -106.915706 172 6551ft 0kts
11-Jan-17 14:04 39.640456 -106.915706 172 6551ft 0kts
11-Jan-17 14:05 39.640456 -106.915706 172 6551ft 0kts
11-Jan-17 14:06 39.640456 -106.915706 172 6551ft 0kts
11-Jan-17 14:07 39.640456 -106.915706 172 6551ft 0kts
11-Jan-17 14:08 39.640456 -106.915706 172 6551ft 0kts
11-Jan-17 14:09 39.640456 -106.915706 172 6551ft 0kts
11-Jan-17 14:10 39.640456 -106.915706 172 6551ft 0kts
11-Jan-17 14:11 39.640456 -106.915706 172 6551ft 0kts
11-Jan-17 14:12 39.640456 -106.915706 172 6551ft 0kts
11-Jan-17 14:13 39.640456 -106.915706 172 6551ft 0kts
11-Jan-17 14:14 39.640456 -106.915706 172 6551ft 0kts
11-Jan-17 14:15 39.640456 -106.915706 172 6551ft 0kts
11-Jan-17 14:16 39.640456 -106.915706 172 6551ft 0kts
11-Jan-17 14:17 39.640456 -106.915706 172 6551ft 0kts
11-Jan-17 14:18 39.640456 -106.915706 172 6551ft 0kts
11-Jan-17 14:19 39.640693 -106.915731 178 6551ft 1kts
11-Jan-17 14:20 39.641016 -106.916101 86 6551ft 0kts
11-Jan-17 14:21 39.641016 -106.916101 86 6551ft 0kts
11-Jan-17 14:22 39.641016 -106.916101 86 6551ft 0kts
11-Jan-17 14:23 39.641016 -106.916101 86 6551ft 0kts
11-Jan-17 14:24 39.641016 -106.916101 86 6551ft 0kts
11-Jan-17 14:25 39.641016 -106.916101 86 6551ft 0kts
11-Jan-17 14:26 39.641532 -106.914189 20 6551ft 15kts
11-Jan-17 14:27 39.642407 -106.909940 82 6551ft 12kts
11-Jan-17 14:28 39.642984 -106.904621 82 6551ft 17kts
11-Jan-17 14:29 39.643334 -106.902006 50 6551ft 0kts
11-Jan-17 14:30 39.643550 -106.901860 9 6551ft 8kts
11-Jan-17 14:31 39.644067 -106.905149 260 6551ft 59kts
11-Jan-17 14:32 39.641833 -106.924239 229 6551ft 15kts
11-Jan-17 14:33 39.641304 -106.920099 80 6551ft 15kts
11-Jan-17 14:34 39.641954 -106.914114 81 6551ft 17kts
11-Jan-17 14:35 39.642704 -106.907150 81 6551ft 21kts
11-Jan-17 14:36 39.643299 -106.902099 59 6551ft 0kts
11-Jan-17 14:37 39.644227 -106.903623 261 6551ft 44kts
11-Jan-17 14:38 39.636139 -106.945342 216 6988ft 162kts
11-Jan-17 14:39 39.598464 -106.986754 249 8736ft 182kts
11-Jan-17 14:40 39.641568 -107.020559 346 10138ft 245kts
11-Jan-17 14:41 39.697580 -107.048120 320 12451ft 210kts
11-Jan-17 14:42 39.747295 -107.083718 319 13823ft 216kts
11-Jan-17 14:43 39.793841 -107.117272 318 15061ft 219kts
11-Jan-17 14:44 39.824241 -107.169466 287 16222ft 198kts
11-Jan-17 14:45 39.846284 -107.233108 285 17431ft 198kts
11-Jan-17 14:46 39.867441 -107.297841 284 18540ft 200kts
11-Jan-17 14:47 39.888701 -107.363774 283 19564ft 201kts
11-Jan-17 14:48 39.910149 -107.430618 283 20510ft 203kts
11-Jan-17 14:49 39.931614 -107.497685 283 21379ft 204kts
11-Jan-17 14:50 39.952877 -107.564306 283 22170ft 206kts
11-Jan-17 14:51 39.975315 -107.634854 283 22707ft 219kts
11-Jan-17 14:52 39.998421 -107.706687 282 23583ft 220kts
11-Jan-17 14:53 40.021797 -107.780172 282 24391ft 221kts
11-Jan-17 14:54 40.044420 -107.851715 282 25088ft 222kts
11-Jan-17 14:55 40.066944 -107.923854 278 25728ft 222kts
11-Jan-17 14:56 40.083518 -108.000880 276 26354ft 222kts
11-Jan-17 14:57 40.100020 -108.078457 275 26828ft 227kts
11-Jan-17 14:58 40.116532 -108.157006 275 27340ft 227kts
11-Jan-17 14:59 40.133165 -108.236427 275 27684ft 232kts
11-Jan-17 15:00 40.150438 -108.319154 275 27746ft 247kts
11-Jan-17 15:01 40.169071 -108.408741 276 27748ft 265kts
11-Jan-17 15:02 40.188873 -108.504278 276 27743ft 281kts
11-Jan-17 15:03 40.209706 -108.605287 277 27723ft 296kts
11-Jan-17 15:04 40.231621 -108.710811 277 27718ft 311kts
11-Jan-17 15:05 40.254533 -108.822460 277 27711ft 326kts
11-Jan-17 15:06 40.278194 -108.938981 277 27708ft 337kts
11-Jan-17 15:07 40.302310 -109.058637 278 27706ft 346kts
11-Jan-17 15:08 40.327029 -109.181856 279 27704ft 353kts
11-Jan-17 15:09 40.351985 -109.306811 279 27703ft 360kts
11-Jan-17 15:10 40.377295 -109.434499 279 27701ft 365kts
11-Jan-17 15:11 40.402765 -109.563805 280 27699ft 369kts
11-Jan-17 15:12 40.428089 -109.692206 279 27711ft 373kts
11-Jan-17 15:13 40.454003 -109.824556 279 27710ft 377kts
11-Jan-17 15:14 40.479854 -109.958346 279 27708ft 381kts
11-Jan-17 15:15 40.505752 -110.093433 279 27706ft 383kts
11-Jan-17 15:16 40.531550 -110.228852 279 27705ft 384kts
11-Jan-17 15:17 40.557254 -110.364723 279 27708ft 385kts
11-Jan-17 15:18 40.582799 -110.500753 279 27715ft 385kts
11-Jan-17 15:19 40.608026 -110.635971 279 27708ft 385kts
11-Jan-17 15:20 40.632963 -110.768661 279 27705ft 387kts
11-Jan-17 15:21 40.657935 -110.904274 279 27700ft 388kts
11-Jan-17 15:22 40.682724 -111.040096 279 27698ft 388kts
11-Jan-17 15:23 40.707427 -111.176191 280 27703ft 388kts
11-Jan-17 15:24 40.731937 -111.312297 280 27720ft 387kts
11-Jan-17 15:25 40.756318 -111.448779 280 27728ft 387kts
11-Jan-17 15:26 40.780332 -111.584089 280 27746ft 386kts
11-Jan-17 15:27 40.804426 -111.719284 279 27767ft 387kts
11-Jan-17 15:28 40.828488 -111.856387 279 27766ft 388kts
11-Jan-17 15:29 40.856516 -111.992868 292 27766ft 395kts
11-Jan-17 15:30 40.931069 -112.102891 305 27770ft 406kts
11-Jan-17 15:31 41.006440 -112.213572 305 27771ft 406kts
11-Jan-17 15:32 41.081120 -112.324898 306 27763ft 406kts
11-Jan-17 15:33 41.155420 -112.436079 306 27763ft 406kts
11-Jan-17 15:34 41.229676 -112.547620 306 27761ft 405kts
11-Jan-17 15:35 41.303708 -112.659243 306 27760ft 405kts
11-Jan-17 15:36 41.378027 -112.771014 306 27764ft 405kts
11-Jan-17 15:37 41.452064 -112.883517 306 27762ft 406kts
11-Jan-17 15:38 41.526425 -112.996926 306 27762ft 407kts
11-Jan-17 15:39 41.600696 -113.110597 307 27755ft 409kts
11-Jan-17 15:40 41.674974 -113.224741 307 27741ft 410kts
11-Jan-17 15:41 41.749766 -113.340117 307 27732ft 411kts
11-Jan-17 15:42 41.824411 -113.455725 307 27731ft 412kts
11-Jan-17 15:43 41.899034 -113.571739 307 27730ft 412kts
11-Jan-17 15:44 41.973181 -113.687040 306 27737ft 412kts
11-Jan-17 15:45 42.047699 -113.803447 306 27737ft 414kts
11-Jan-17 15:46 42.122120 -113.920503 306 27735ft 414kts
11-Jan-17 15:47 42.196912 -114.038637 306 27738ft 415kts
11-Jan-17 15:48 42.271307 -114.156594 306 27759ft 414kts
11-Jan-17 15:49 42.345511 -114.274726 306 27777ft 414kts
11-Jan-17 15:50 42.419884 -114.393611 306 27777ft 414kts
11-Jan-17 15:51 42.494261 -114.511923 307 27776ft 415kts
11-Jan-17 15:52 42.570027 -114.629246 307 27775ft 415kts
11-Jan-17 15:53 42.644167 -114.743657 307 27782ft 415kts
11-Jan-17 15:54 42.719970 -114.861793 307 27782ft 416kts
11-Jan-17 15:55 42.795828 -114.980580 307 27781ft 417kts
11-Jan-17 15:56 42.871129 -115.098947 307 27784ft 417kts
11-Jan-17 15:57 42.946127 -115.217360 307 27796ft 417kts
11-Jan-17 15:58 43.020052 -115.334519 308 27796ft 419kts
11-Jan-17 15:59 43.095906 -115.455198 308 27796ft 420kts
11-Jan-17 16:00 43.168723 -115.571546 308 27795ft 421kts
11-Jan-17 16:01 43.243340 -115.690768 307 27801ft 422kts
11-Jan-17 16:02 43.319515 -115.813148 307 27800ft 423kts
11-Jan-17 16:03 43.395381 -115.935882 307 27801ft 424kts
11-Jan-17 16:04 43.470756 -116.058342 307 27805ft 424kts
11-Jan-17 16:05 43.546692 -116.182416 304 27804ft 424kts
11-Jan-17 16:06 43.597619 -116.327188 292 27816ft 421kts
11-Jan-17 16:07 43.645767 -116.473594 293 27821ft 419kts
11-Jan-17 16:08 43.693703 -116.619846 293 27814ft 418kts
11-Jan-17 16:09 43.741308 -116.764618 292 27818ft 418kts
11-Jan-17 16:10 43.788857 -116.911161 292 27817ft 417kts
11-Jan-17 16:11 43.836088 -117.057623 292 27816ft 418kts
11-Jan-17 16:12 43.883083 -117.204180 292 27816ft 418kts
11-Jan-17 16:13 43.930189 -117.351907 292 27815ft 419kts
11-Jan-17 16:14 43.976947 -117.499378 292 27814ft 419kts
11-Jan-17 16:15 44.023647 -117.647481 292 27813ft 419kts
11-Jan-17 16:16 44.070330 -117.795048 291 27810ft 420kts
11-Jan-17 16:17 44.116716 -117.943792 291 27795ft 421kts
11-Jan-17 16:18 44.162993 -118.093089 291 27789ft 422kts
11-Jan-17 16:19 44.209076 -118.242640 291 27814ft 421kts
11-Jan-17 16:20 44.254883 -118.392163 291 27833ft 421kts
11-Jan-17 16:21 44.300710 -118.542608 291 27832ft 421kts
11-Jan-17 16:22 44.345895 -118.691141 291 27836ft 421kts
11-Jan-17 16:23 44.391288 -118.841210 291 27835ft 422kts
11-Jan-17 16:24 44.436800 -118.993310 291 27835ft 427kts
11-Jan-17 16:25 44.482587 -119.147188 291 27835ft 430kts
11-Jan-17 16:26 44.528244 -119.301620 291 27765ft 429kts
11-Jan-17 16:27 44.573260 -119.454824 291 26485ft 423kts
11-Jan-17 16:28 44.617323 -119.605684 291 25649ft 416kts
11-Jan-17 16:29 44.666840 -119.745389 308 24855ft 414kts
11-Jan-17 16:30 44.745422 -119.861204 310 24125ft 409kts
11-Jan-17 16:31 44.820941 -119.978032 310 23846ft 400kts
11-Jan-17 16:32 44.894657 -120.092742 310 23948ft 392kts
11-Jan-17 16:33 44.967143 -120.206000 310 24045ft 387kts
11-Jan-17 16:34 45.038821 -120.318490 310 24054ft 387kts
11-Jan-17 16:35 45.110878 -120.431958 310 24054ft 393kts
11-Jan-17 16:36 45.180554 -120.541939 311 24054ft 397kts
11-Jan-17 16:37 45.254317 -120.658680 310 24054ft 400kts
11-Jan-17 16:38 45.329548 -120.775261 311 24055ft 403kts
11-Jan-17 16:39 45.404958 -120.892360 311 24055ft 405kts
11-Jan-17 16:40 45.481051 -121.010951 311 24055ft 407kts
11-Jan-17 16:52 45.586923 -122.593117 41 28ft 0kts
11-Jan-17 16:53 45.586923 -122.593117 41 28ft 0kts
11-Jan-17 16:54 45.586923 -122.593117 41 28ft 0kts
11-Jan-17 16:55 45.586923 -122.593117 41 28ft 0kts
11-Jan-17 16:56 45.586923 -122.593117 41 28ft 0kts
11-Jan-17 16:57 45.586923 -122.593117 41 28ft 0kts
11-Jan-17 16:58 45.586923 -122.593117 41 28ft 0kts
11-Jan-17 16:59 45.586923 -122.593117 41 28ft 0kts
11-Jan-17 17:00 45.586923 -122.593117 41 28ft 0kts
11-Jan-17 17:01 45.586923 -122.593117 41 28ft 0kts
11-Jan-17 17:02 45.586923 -122.593117 41 28ft 0kts
11-Jan-17 17:03 45.586923 -122.593117 41 28ft 0kts
11-Jan-17 17:04 45.586923 -122.593117 41 28ft 0kts
11-Jan-17 17:05 45.586923 -122.593117 41 28ft 0kts
11-Jan-17 17:06 45.586923 -122.593117 41 28ft 0kts
11-Jan-17 17:07 45.586923 -122.593117 41 28ft 0kts

Navigation Log

Ident Type Via Name
Flight plan parsing failed, navigation log unavailable